sensor_id;sensor_type;location;lat;lon;timestamp;temperature;humidity
28336;DHT22;15592;53.656;7.276;2023-06-22T00:02:16;15.80;99.90
28336;DHT22;15592;53.656;7.276;2023-06-22T00:04:41;15.80;99.90
28336;DHT22;15592;53.656;7.276;2023-06-22T00:07:07;15.70;99.90
28336;DHT22;15592;53.656;7.276;2023-06-22T00:09:33;15.70;99.90
28336;DHT22;15592;53.656;7.276;2023-06-22T00:11:59;15.60;99.90
28336;DHT22;15592;53.656;7.276;2023-06-22T00:14:25;15.50;99.90
28336;DHT22;15592;53.656;7.276;2023-06-22T00:16:50;15.50;99.90
28336;DHT22;15592;53.656;7.276;2023-06-22T00:19:22;15.50;99.90
28336;DHT22;15592;53.656;7.276;2023-06-22T00:21:48;15.50;99.90
28336;DHT22;15592;53.656;7.276;2023-06-22T00:24:18;15.50;99.90
28336;DHT22;15592;53.656;7.276;2023-06-22T00:26:44;15.50;99.90
28336;DHT22;15592;53.656;7.276;2023-06-22T00:29:09;15.60;99.90
28336;DHT22;15592;53.656;7.276;2023-06-22T00:31:35;15.60;99.90
28336;DHT22;15592;53.656;7.276;2023-06-22T00:34:00;15.50;99.90
28336;DHT22;15592;53.656;7.276;2023-06-22T00:36:26;15.50;99.90
28336;DHT22;15592;53.656;7.276;2023-06-22T00:38:52;15.60;99.90
28336;DHT22;15592;53.656;7.276;2023-06-22T00:41:17;15.60;99.90
28336;DHT22;15592;53.656;7.276;2023-06-22T00:43:43;15.60;99.90
28336;DHT22;15592;53.656;7.276;2023-06-22T00:46:09;15.60;99.90
28336;DHT22;15592;53.656;7.276;2023-06-22T00:48:34;15.60;99.90
28336;DHT22;15592;53.656;7.276;2023-06-22T00:51:02;15.70;99.90
28336;DHT22;15592;53.656;7.276;2023-06-22T00:53:28;15.60;99.90
28336;DHT22;15592;53.656;7.276;2023-06-22T00:55:54;15.60;99.90
28336;DHT22;15592;53.656;7.276;2023-06-22T00:58:22;15.50;99.90
28336;DHT22;15592;53.656;7.276;2023-06-22T01:00:48;15.60;99.90
28336;DHT22;15592;53.656;7.276;2023-06-22T01:03:14;15.50;99.90
28336;DHT22;15592;53.656;7.276;2023-06-22T01:05:40;15.50;99.90
28336;DHT22;15592;53.656;7.276;2023-06-22T01:11:10;15.50;99.90
28336;DHT22;15592;53.656;7.276;2023-06-22T01:16:27;15.60;99.90
28336;DHT22;15592;53.656;7.276;2023-06-22T01:18:56;15.50;99.90
28336;DHT22;15592;53.656;7.276;2023-06-22T01:21:25;15.40;99.90
28336;DHT22;15592;53.656;7.276;2023-06-22T01:24:02;15.40;99.90
28336;DHT22;15592;53.656;7.276;2023-06-22T01:26:57;15.40;99.90
28336;DHT22;15592;53.656;7.276;2023-06-22T01:29:26;15.50;99.90
28336;DHT22;15592;53.656;7.276;2023-06-22T01:31:53;15.50;99.90
28336;DHT22;15592;53.656;7.276;2023-06-22T01:34:20;15.50;99.90
28336;DHT22;15592;53.656;7.276;2023-06-22T01:36:46;15.60;99.90
28336;DHT22;15592;53.656;7.276;2023-06-22T01:39:13;15.60;99.90
28336;DHT22;15592;53.656;7.276;2023-06-22T01:41:40;15.60;99.90
28336;DHT22;15592;53.656;7.276;2023-06-22T01:44:08;15.60;99.90
28336;DHT22;15592;53.656;7.276;2023-06-22T01:46:35;15.60;99.90
28336;DHT22;15592;53.656;7.276;2023-06-22T01:49:04;15.70;99.90
28336;DHT22;15592;53.656;7.276;2023-06-22T01:51:30;15.70;99.90
28336;DHT22;15592;53.656;7.276;2023-06-22T01:53:56;15.70;99.90
28336;DHT22;15592;53.656;7.276;2023-06-22T01:56:22;15.60;99.90
28336;DHT22;15592;53.656;7.276;2023-06-22T01:59:30;15.60;99.90
28336;DHT22;15592;53.656;7.276;2023-06-22T02:02:09;15.70;99.90
28336;DHT22;15592;53.656;7.276;2023-06-22T02:04:44;15.60;99.90
28336;DHT22;15592;53.656;7.276;2023-06-22T02:07:14;15.60;99.90
28336;DHT22;15592;53.656;7.276;2023-06-22T02:09:44;15.60;99.90
28336;DHT22;15592;53.656;7.276;2023-06-22T02:12:12;15.60;99.90
28336;DHT22;15592;53.656;7.276;2023-06-22T02:14:39;15.50;99.90
28336;DHT22;15592;53.656;7.276;2023-06-22T02:17:05;15.60;99.90
28336;DHT22;15592;53.656;7.276;2023-06-22T02:19:36;15.50;99.90
28336;DHT22;15592;53.656;7.276;2023-06-22T02:22:02;15.50;99.90
28336;DHT22;15592;53.656;7.276;2023-06-22T02:24:28;15.50;99.90
28336;DHT22;15592;53.656;7.276;2023-06-22T02:27:00;15.50;99.90
28336;DHT22;15592;53.656;7.276;2023-06-22T02:29:26;15.50;99.90
28336;DHT22;15592;53.656;7.276;2023-06-22T02:31:55;15.40;99.90
28336;DHT22;15592;53.656;7.276;2023-06-22T02:34:21;15.50;99.90
28336;DHT22;15592;53.656;7.276;2023-06-22T02:36:50;15.50;99.90
28336;DHT22;15592;53.656;7.276;2023-06-22T02:39:25;15.50;99.90
28336;DHT22;15592;53.656;7.276;2023-06-22T02:41:54;15.50;99.90
28336;DHT22;15592;53.656;7.276;2023-06-22T02:44:20;15.60;99.90
28336;DHT22;15592;53.656;7.276;2023-06-22T02:46:47;15.50;99.90
28336;DHT22;15592;53.656;7.276;2023-06-22T02:49:13;15.50;99.90
28336;DHT22;15592;53.656;7.276;2023-06-22T02:51:41;15.50;99.90
28336;DHT22;15592;53.656;7.276;2023-06-22T02:54:07;15.40;99.90
28336;DHT22;15592;53.656;7.276;2023-06-22T02:56:33;15.30;99.90
28336;DHT22;15592;53.656;7.276;2023-06-22T02:58:58;15.20;99.90
28336;DHT22;15592;53.656;7.276;2023-06-22T03:01:27;15.20;99.90
28336;DHT22;15592;53.656;7.276;2023-06-22T03:03:55;15.20;99.90
28336;DHT22;15592;53.656;7.276;2023-06-22T03:06:21;15.20;99.90
28336;DHT22;15592;53.656;7.276;2023-06-22T03:08:58;15.20;99.90
28336;DHT22;15592;53.656;7.276;2023-06-22T03:11:24;15.20;99.90
28336;DHT22;15592;53.656;7.276;2023-06-22T03:13:50;15.10;99.90
28336;DHT22;15592;53.656;7.276;2023-06-22T03:16:17;15.20;99.90
28336;DHT22;15592;53.656;7.276;2023-06-22T03:18:43;15.20;99.90
28336;DHT22;15592;53.656;7.276;2023-06-22T03:21:09;15.10;99.90
28336;DHT22;15592;53.656;7.276;2023-06-22T03:23:34;15.10;99.90
28336;DHT22;15592;53.656;7.276;2023-06-22T03:26:01;15.10;99.90
28336;DHT22;15592;53.656;7.276;2023-06-22T03:28:27;15.10;99.90
28336;DHT22;15592;53.656;7.276;2023-06-22T03:30:52;15.10;99.90
28336;DHT22;15592;53.656;7.276;2023-06-22T03:33:18;15.10;99.90
28336;DHT22;15592;53.656;7.276;2023-06-22T03:35:44;15.00;99.90
28336;DHT22;15592;53.656;7.276;2023-06-22T03:38:09;14.90;99.90
28336;DHT22;15592;53.656;7.276;2023-06-22T03:40:35;14.90;99.90
28336;DHT22;15592;53.656;7.276;2023-06-22T03:43:00;14.90;99.90
28336;DHT22;15592;53.656;7.276;2023-06-22T03:45:26;14.90;99.90
28336;DHT22;15592;53.656;7.276;2023-06-22T03:47:51;14.90;99.90
28336;DHT22;15592;53.656;7.276;2023-06-22T03:50:17;15.00;99.90
28336;DHT22;15592;53.656;7.276;2023-06-22T03:52:45;15.00;99.90
28336;DHT22;15592;53.656;7.276;2023-06-22T03:55:11;15.00;99.90
28336;DHT22;15592;53.656;7.276;2023-06-22T03:57:37;15.00;99.90
28336;DHT22;15592;53.656;7.276;2023-06-22T04:00:03;15.00;99.90
28336;DHT22;15592;53.656;7.276;2023-06-22T04:02:31;15.00;99.90
28336;DHT22;15592;53.656;7.276;2023-06-22T04:04:57;15.00;99.90
28336;DHT22;15592;53.656;7.276;2023-06-22T04:07:22;15.00;99.90
28336;DHT22;15592;53.656;7.276;2023-06-22T04:09:48;15.00;99.90
28336;DHT22;15592;53.656;7.276;2023-06-22T04:12:13;15.00;99.90
28336;DHT22;15592;53.656;7.276;2023-06-22T04:14:39;15.10;99.90
28336;DHT22;15592;53.656;7.276;2023-06-22T04:17:05;15.10;99.90
28336;DHT22;15592;53.656;7.276;2023-06-22T04:19:30;15.20;99.90
28336;DHT22;15592;53.656;7.276;2023-06-22T04:21:56;15.10;99.90
28336;DHT22;15592;53.656;7.276;2023-06-22T04:24:22;15.20;99.90
28336;DHT22;15592;53.656;7.276;2023-06-22T04:26:47;15.10;99.90
28336;DHT22;15592;53.656;7.276;2023-06-22T04:29:13;15.20;99.90
28336;DHT22;15592;53.656;7.276;2023-06-22T04:31:39;15.20;99.90
28336;DHT22;15592;53.656;7.276;2023-06-22T04:34:06;15.30;99.90
28336;DHT22;15592;53.656;7.276;2023-06-22T04:36:36;15.40;99.90
28336;DHT22;15592;53.656;7.276;2023-06-22T04:39:11;15.40;99.90
28336;DHT22;15592;53.656;7.276;2023-06-22T04:41:38;15.50;99.90
28336;DHT22;15592;53.656;7.276;2023-06-22T04:44:19;15.60;99.90
28336;DHT22;15592;53.656;7.276;2023-06-22T04:46:59;15.70;99.90
28336;DHT22;15592;53.656;7.276;2023-06-22T04:49:34;15.70;99.90
28336;DHT22;15592;53.656;7.276;2023-06-22T04:52:05;15.80;99.90
28336;DHT22;15592;53.656;7.276;2023-06-22T04:54:31;15.90;99.90
28336;DHT22;15592;53.656;7.276;2023-06-22T04:57:02;15.90;99.90
28336;DHT22;15592;53.656;7.276;2023-06-22T04:59:29;16.00;99.90
28336;DHT22;15592;53.656;7.276;2023-06-22T05:01:59;16.10;99.90
28336;DHT22;15592;53.656;7.276;2023-06-22T05:04:26;16.20;99.90
28336;DHT22;15592;53.656;7.276;2023-06-22T05:06:53;16.30;99.90
28336;DHT22;15592;53.656;7.276;2023-06-22T05:09:20;16.40;99.90
28336;DHT22;15592;53.656;7.276;2023-06-22T05:11:46;16.40;99.90
28336;DHT22;15592;53.656;7.276;2023-06-22T05:14:12;16.50;99.90
28336;DHT22;15592;53.656;7.276;2023-06-22T05:16:38;16.60;99.90
28336;DHT22;15592;53.656;7.276;2023-06-22T05:19:04;16.70;99.90
28336;DHT22;15592;53.656;7.276;2023-06-22T05:21:30;16.70;99.90
28336;DHT22;15592;53.656;7.276;2023-06-22T05:23:56;16.80;99.90
28336;DHT22;15592;53.656;7.276;2023-06-22T05:26:26;16.80;99.90
28336;DHT22;15592;53.656;7.276;2023-06-22T05:28:52;16.90;99.90
28336;DHT22;15592;53.656;7.276;2023-06-22T05:31:18;16.90;99.90
28336;DHT22;15592;53.656;7.276;2023-06-22T05:33:45;16.90;99.90
28336;DHT22;15592;53.656;7.276;2023-06-22T05:36:11;16.90;99.90
28336;DHT22;15592;53.656;7.276;2023-06-22T05:38:38;17.00;99.90
28336;DHT22;15592;53.656;7.276;2023-06-22T05:41:03;17.00;99.90
28336;DHT22;15592;53.656;7.276;2023-06-22T05:43:29;17.10;99.90
28336;DHT22;15592;53.656;7.276;2023-06-22T05:45:55;17.10;99.90
28336;DHT22;15592;53.656;7.276;2023-06-22T05:48:21;17.20;99.90
28336;DHT22;15592;53.656;7.276;2023-06-22T05:50:47;17.20;99.90
28336;DHT22;15592;53.656;7.276;2023-06-22T05:53:13;17.30;99.90
28336;DHT22;15592;53.656;7.276;2023-06-22T05:55:38;17.30;99.90
28336;DHT22;15592;53.656;7.276;2023-06-22T05:58:04;17.40;99.90
28336;DHT22;15592;53.656;7.276;2023-06-22T06:00:30;17.50;99.90
28336;DHT22;15592;53.656;7.276;2023-06-22T06:02:56;17.50;99.90
28336;DHT22;15592;53.656;7.276;2023-06-22T06:05:22;17.60;99.90
28336;DHT22;15592;53.656;7.276;2023-06-22T06:07:49;17.60;99.90
28336;DHT22;15592;53.656;7.276;2023-06-22T06:10:15;17.60;99.90
28336;DHT22;15592;53.656;7.276;2023-06-22T06:12:40;17.60;99.90
28336;DHT22;15592;53.656;7.276;2023-06-22T06:15:06;17.70;99.90
28336;DHT22;15592;53.656;7.276;2023-06-22T06:17:32;17.70;99.90
28336;DHT22;15592;53.656;7.276;2023-06-22T06:19:59;17.70;99.90
28336;DHT22;15592;53.656;7.276;2023-06-22T06:22:25;17.70;99.90
28336;DHT22;15592;53.656;7.276;2023-06-22T06:24:50;17.80;99.90
28336;DHT22;15592;53.656;7.276;2023-06-22T06:27:16;17.80;99.90
28336;DHT22;15592;53.656;7.276;2023-06-22T06:29:44;17.90;99.90
28336;DHT22;15592;53.656;7.276;2023-06-22T06:32:13;17.90;99.90
28336;DHT22;15592;53.656;7.276;2023-06-22T06:34:39;18.00;99.90
28336;DHT22;15592;53.656;7.276;2023-06-22T06:37:06;18.00;99.90
28336;DHT22;15592;53.656;7.276;2023-06-22T06:39:31;18.00;99.90
28336;DHT22;15592;53.656;7.276;2023-06-22T06:41:57;18.10;99.90
28336;DHT22;15592;53.656;7.276;2023-06-22T06:44:22;18.20;99.90
28336;DHT22;15592;53.656;7.276;2023-06-22T06:46:48;18.20;99.90
28336;DHT22;15592;53.656;7.276;2023-06-22T06:49:14;18.30;99.90
28336;DHT22;15592;53.656;7.276;2023-06-22T06:51:39;18.30;99.90
28336;DHT22;15592;53.656;7.276;2023-06-22T06:54:05;18.30;99.90
28336;DHT22;15592;53.656;7.276;2023-06-22T06:56:30;18.40;99.90
28336;DHT22;15592;53.656;7.276;2023-06-22T06:58:58;18.50;99.90
28336;DHT22;15592;53.656;7.276;2023-06-22T07:01:24;18.50;99.90
28336;DHT22;15592;53.656;7.276;2023-06-22T07:03:50;18.60;99.90
28336;DHT22;15592;53.656;7.276;2023-06-22T07:06:16;18.70;99.90
28336;DHT22;15592;53.656;7.276;2023-06-22T07:08:42;18.80;99.90
28336;DHT22;15592;53.656;7.276;2023-06-22T07:11:08;18.80;99.90
28336;DHT22;15592;53.656;7.276;2023-06-22T07:13:33;18.90;99.90
28336;DHT22;15592;53.656;7.276;2023-06-22T07:15:59;18.90;99.90
28336;DHT22;15592;53.656;7.276;2023-06-22T07:18:25;18.90;99.90
28336;DHT22;15592;53.656;7.276;2023-06-22T07:20:52;19.00;99.90
28336;DHT22;15592;53.656;7.276;2023-06-22T07:23:17;19.00;99.90
28336;DHT22;15592;53.656;7.276;2023-06-22T07:25:43;19.10;99.90
28336;DHT22;15592;53.656;7.276;2023-06-22T07:28:09;19.20;99.90
28336;DHT22;15592;53.656;7.276;2023-06-22T07:30:35;19.20;99.90
28336;DHT22;15592;53.656;7.276;2023-06-22T07:33:01;19.20;99.90
28336;DHT22;15592;53.656;7.276;2023-06-22T07:35:33;19.30;99.90
28336;DHT22;15592;53.656;7.276;2023-06-22T07:37:59;19.30;99.90
28336;DHT22;15592;53.656;7.276;2023-06-22T07:40:25;19.40;99.90
28336;DHT22;15592;53.656;7.276;2023-06-22T07:42:51;19.40;99.90
28336;DHT22;15592;53.656;7.276;2023-06-22T07:45:20;19.50;99.90
28336;DHT22;15592;53.656;7.276;2023-06-22T07:47:45;19.50;99.90
28336;DHT22;15592;53.656;7.276;2023-06-22T07:50:11;19.50;99.90
28336;DHT22;15592;53.656;7.276;2023-06-22T07:52:37;19.60;99.90
28336;DHT22;15592;53.656;7.276;2023-06-22T07:55:03;19.60;99.90
28336;DHT22;15592;53.656;7.276;2023-06-22T07:57:30;19.60;99.90
28336;DHT22;15592;53.656;7.276;2023-06-22T08:00:04;19.70;99.90
28336;DHT22;15592;53.656;7.276;2023-06-22T08:02:37;19.80;99.90
28336;DHT22;15592;53.656;7.276;2023-06-22T08:05:03;19.80;99.90
28336;DHT22;15592;53.656;7.276;2023-06-22T08:07:29;19.80;99.90
28336;DHT22;15592;53.656;7.276;2023-06-22T08:09:55;19.90;99.90
28336;DHT22;15592;53.656;7.276;2023-06-22T08:12:20;19.90;99.90
28336;DHT22;15592;53.656;7.276;2023-06-22T08:14:46;20.00;99.90
28336;DHT22;15592;53.656;7.276;2023-06-22T08:17:12;20.00;99.90
28336;DHT22;15592;53.656;7.276;2023-06-22T08:19:39;20.10;99.90
28336;DHT22;15592;53.656;7.276;2023-06-22T08:22:05;20.10;99.90
28336;DHT22;15592;53.656;7.276;2023-06-22T08:24:31;20.20;99.90
28336;DHT22;15592;53.656;7.276;2023-06-22T08:26:56;20.30;99.90
28336;DHT22;15592;53.656;7.276;2023-06-22T08:29:22;20.30;99.90
28336;DHT22;15592;53.656;7.276;2023-06-22T08:31:47;20.30;99.90
28336;DHT22;15592;53.656;7.276;2023-06-22T08:34:13;20.40;99.90
28336;DHT22;15592;53.656;7.276;2023-06-22T08:36:39;20.40;99.90
28336;DHT22;15592;53.656;7.276;2023-06-22T08:39:10;20.50;99.90
28336;DHT22;15592;53.656;7.276;2023-06-22T08:41:35;20.50;99.90
28336;DHT22;15592;53.656;7.276;2023-06-22T08:44:01;20.60;99.90
28336;DHT22;15592;53.656;7.276;2023-06-22T08:46:26;20.70;99.90
28336;DHT22;15592;53.656;7.276;2023-06-22T08:48:57;20.70;99.90
28336;DHT22;15592;53.656;7.276;2023-06-22T08:51:23;20.80;99.90
28336;DHT22;15592;53.656;7.276;2023-06-22T08:53:49;20.90;99.90
28336;DHT22;15592;53.656;7.276;2023-06-22T08:56:14;20.90;99.90
28336;DHT22;15592;53.656;7.276;2023-06-22T08:58:40;20.90;99.90
28336;DHT22;15592;53.656;7.276;2023-06-22T09:01:05;20.90;99.90
28336;DHT22;15592;53.656;7.276;2023-06-22T09:03:31;21.00;99.90
28336;DHT22;15592;53.656;7.276;2023-06-22T09:05:58;21.00;99.90
28336;DHT22;15592;53.656;7.276;2023-06-22T09:08:24;21.10;99.90
28336;DHT22;15592;53.656;7.276;2023-06-22T09:10:49;21.20;99.90
28336;DHT22;15592;53.656;7.276;2023-06-22T09:13:15;21.20;99.90
28336;DHT22;15592;53.656;7.276;2023-06-22T09:15:41;21.20;99.90
28336;DHT22;15592;53.656;7.276;2023-06-22T09:18:06;21.30;99.90
28336;DHT22;15592;53.656;7.276;2023-06-22T09:20:35;21.40;99.90
28336;DHT22;15592;53.656;7.276;2023-06-22T09:23:00;21.30;99.90
28336;DHT22;15592;53.656;7.276;2023-06-22T09:25:26;21.30;99.90
28336;DHT22;15592;53.656;7.276;2023-06-22T09:27:52;21.30;99.90
28336;DHT22;15592;53.656;7.276;2023-06-22T09:30:17;21.40;99.90
28336;DHT22;15592;53.656;7.276;2023-06-22T09:32:43;21.40;99.90
28336;DHT22;15592;53.656;7.276;2023-06-22T09:35:09;21.40;99.90
28336;DHT22;15592;53.656;7.276;2023-06-22T09:37:35;21.50;99.90
28336;DHT22;15592;53.656;7.276;2023-06-22T09:40:01;21.50;99.90
28336;DHT22;15592;53.656;7.276;2023-06-22T09:42:26;21.40;99.90
28336;DHT22;15592;53.656;7.276;2023-06-22T09:44:52;21.40;99.90
28336;DHT22;15592;53.656;7.276;2023-06-22T09:47:18;21.40;99.90
28336;DHT22;15592;53.656;7.276;2023-06-22T09:49:43;21.40;99.90
28336;DHT22;15592;53.656;7.276;2023-06-22T09:52:09;21.40;99.90
28336;DHT22;15592;53.656;7.276;2023-06-22T09:54:36;21.30;99.90
28336;DHT22;15592;53.656;7.276;2023-06-22T09:57:02;21.30;99.90
28336;DHT22;15592;53.656;7.276;2023-06-22T09:59:27;21.40;99.90
28336;DHT22;15592;53.656;7.276;2023-06-22T10:01:53;21.40;99.90
28336;DHT22;15592;53.656;7.276;2023-06-22T10:04:19;21.40;99.90
28336;DHT22;15592;53.656;7.276;2023-06-22T10:06:44;21.40;99.90
28336;DHT22;15592;53.656;7.276;2023-06-22T10:09:10;21.40;99.90
28336;DHT22;15592;53.656;7.276;2023-06-22T10:11:35;21.50;99.90
28336;DHT22;15592;53.656;7.276;2023-06-22T10:14:02;21.50;99.90
28336;DHT22;15592;53.656;7.276;2023-06-22T10:16:32;21.60;99.90
28336;DHT22;15592;53.656;7.276;2023-06-22T10:18:58;21.60;99.90
28336;DHT22;15592;53.656;7.276;2023-06-22T10:21:24;21.70;99.90
28336;DHT22;15592;53.656;7.276;2023-06-22T10:23:49;21.70;99.90
28336;DHT22;15592;53.656;7.276;2023-06-22T10:26:15;21.70;99.90
28336;DHT22;15592;53.656;7.276;2023-06-22T10:28:41;21.60;99.90
28336;DHT22;15592;53.656;7.276;2023-06-22T10:31:06;21.50;99.90
28336;DHT22;15592;53.656;7.276;2023-06-22T10:33:32;21.50;99.90
28336;DHT22;15592;53.656;7.276;2023-06-22T10:35:58;21.50;99.90
28336;DHT22;15592;53.656;7.276;2023-06-22T10:38:23;21.50;99.90
28336;DHT22;15592;53.656;7.276;2023-06-22T10:40:49;21.70;99.90
28336;DHT22;15592;53.656;7.276;2023-06-22T10:43:14;21.70;99.90
28336;DHT22;15592;53.656;7.276;2023-06-22T10:45:40;21.80;99.90
28336;DHT22;15592;53.656;7.276;2023-06-22T10:48:05;21.90;99.90
28336;DHT22;15592;53.656;7.276;2023-06-22T10:50:31;21.90;99.90
28336;DHT22;15592;53.656;7.276;2023-06-22T10:52:57;21.90;99.90
28336;DHT22;15592;53.656;7.276;2023-06-22T10:55:23;21.90;99.90
28336;DHT22;15592;53.656;7.276;2023-06-22T10:57:48;21.90;99.90
28336;DHT22;15592;53.656;7.276;2023-06-22T11:00:15;21.90;99.90
28336;DHT22;15592;53.656;7.276;2023-06-22T11:02:41;22.00;99.90
28336;DHT22;15592;53.656;7.276;2023-06-22T11:05:07;22.00;99.90
28336;DHT22;15592;53.656;7.276;2023-06-22T11:07:33;22.00;99.90
28336;DHT22;15592;53.656;7.276;2023-06-22T11:09:58;22.10;99.90
28336;DHT22;15592;53.656;7.276;2023-06-22T11:12:24;22.00;99.90
28336;DHT22;15592;53.656;7.276;2023-06-22T11:14:50;22.10;99.90
28336;DHT22;15592;53.656;7.276;2023-06-22T11:17:17;21.90;99.90
28336;DHT22;15592;53.656;7.276;2023-06-22T11:19:44;21.90;99.90
28336;DHT22;15592;53.656;7.276;2023-06-22T11:22:10;21.90;99.90
28336;DHT22;15592;53.656;7.276;2023-06-22T11:24:35;21.90;99.90
28336;DHT22;15592;53.656;7.276;2023-06-22T11:27:01;21.80;99.90
28336;DHT22;15592;53.656;7.276;2023-06-22T11:29:27;21.80;99.90
28336;DHT22;15592;53.656;7.276;2023-06-22T11:31:52;21.80;99.90
28336;DHT22;15592;53.656;7.276;2023-06-22T11:34:18;21.70;99.90
28336;DHT22;15592;53.656;7.276;2023-06-22T11:36:44;21.70;99.90
28336;DHT22;15592;53.656;7.276;2023-06-22T11:39:11;21.80;99.90
28336;DHT22;15592;53.656;7.276;2023-06-22T11:41:37;21.90;99.90
28336;DHT22;15592;53.656;7.276;2023-06-22T11:44:03;21.90;99.90
28336;DHT22;15592;53.656;7.276;2023-06-22T11:46:30;21.90;99.90
28336;DHT22;15592;53.656;7.276;2023-06-22T11:48:57;21.90;99.90
28336;DHT22;15592;53.656;7.276;2023-06-22T11:51:22;21.80;99.90
28336;DHT22;15592;53.656;7.276;2023-06-22T11:53:48;21.70;99.90
28336;DHT22;15592;53.656;7.276;2023-06-22T11:56:13;21.70;99.90
28336;DHT22;15592;53.656;7.276;2023-06-22T11:58:39;21.70;99.90
28336;DHT22;15592;53.656;7.276;2023-06-22T12:01:05;21.70;99.90
28336;DHT22;15592;53.656;7.276;2023-06-22T12:03:30;21.70;99.90
28336;DHT22;15592;53.656;7.276;2023-06-22T12:05:56;21.70;99.90
28336;DHT22;15592;53.656;7.276;2023-06-22T12:08:22;21.70;99.90
28336;DHT22;15592;53.656;7.276;2023-06-22T12:10:49;21.60;99.90
28336;DHT22;15592;53.656;7.276;2023-06-22T12:13:15;21.70;99.90
28336;DHT22;15592;53.656;7.276;2023-06-22T12:15:41;21.70;99.90
28336;DHT22;15592;53.656;7.276;2023-06-22T12:18:06;21.70;99.90
28336;DHT22;15592;53.656;7.276;2023-06-22T12:20:32;21.70;99.90
28336;DHT22;15592;53.656;7.276;2023-06-22T12:22:58;21.80;99.90
28336;DHT22;15592;53.656;7.276;2023-06-22T12:25:23;21.80;99.90
28336;DHT22;15592;53.656;7.276;2023-06-22T12:27:50;21.80;99.90
28336;DHT22;15592;53.656;7.276;2023-06-22T12:30:16;21.80;99.90
28336;DHT22;15592;53.656;7.276;2023-06-22T12:32:41;21.90;99.90
28336;DHT22;15592;53.656;7.276;2023-06-22T12:35:07;21.90;99.90
28336;DHT22;15592;53.656;7.276;2023-06-22T12:37:37;21.90;99.90
28336;DHT22;15592;53.656;7.276;2023-06-22T12:40:03;22.00;99.90
28336;DHT22;15592;53.656;7.276;2023-06-22T12:42:29;21.90;99.90
28336;DHT22;15592;53.656;7.276;2023-06-22T12:44:55;21.90;99.90
28336;DHT22;15592;53.656;7.276;2023-06-22T12:47:20;22.00;99.90
28336;DHT22;15592;53.656;7.276;2023-06-22T12:49:46;22.00;99.90
28336;DHT22;15592;53.656;7.276;2023-06-22T12:52:11;21.90;99.90
28336;DHT22;15592;53.656;7.276;2023-06-22T12:54:37;21.80;99.90
28336;DHT22;15592;53.656;7.276;2023-06-22T12:57:03;21.70;99.90
28336;DHT22;15592;53.656;7.276;2023-06-22T12:59:28;21.60;99.90
28336;DHT22;15592;53.656;7.276;2023-06-22T13:01:54;21.40;99.90
28336;DHT22;15592;53.656;7.276;2023-06-22T13:04:20;21.30;99.90
28336;DHT22;15592;53.656;7.276;2023-06-22T13:06:46;21.20;99.90
28336;DHT22;15592;53.656;7.276;2023-06-22T13:09:14;21.20;99.90
28336;DHT22;15592;53.656;7.276;2023-06-22T13:11:40;21.20;99.90
28336;DHT22;15592;53.656;7.276;2023-06-22T13:14:06;21.30;99.90
28336;DHT22;15592;53.656;7.276;2023-06-22T13:16:31;21.20;99.90
28336;DHT22;15592;53.656;7.276;2023-06-22T13:18:57;21.20;99.90
28336;DHT22;15592;53.656;7.276;2023-06-22T13:21:22;21.30;99.90
28336;DHT22;15592;53.656;7.276;2023-06-22T13:23:48;21.30;99.90
28336;DHT22;15592;53.656;7.276;2023-06-22T13:26:14;21.40;99.90
28336;DHT22;15592;53.656;7.276;2023-06-22T13:28:39;21.40;99.90
28336;DHT22;15592;53.656;7.276;2023-06-22T13:31:05;21.40;99.90
28336;DHT22;15592;53.656;7.276;2023-06-22T13:33:49;21.40;99.90
28336;DHT22;15592;53.656;7.276;2023-06-22T13:36:17;21.50;99.90
28336;DHT22;15592;53.656;7.276;2023-06-22T13:38:43;21.50;99.90
28336;DHT22;15592;53.656;7.276;2023-06-22T13:41:09;21.60;99.90
28336;DHT22;15592;53.656;7.276;2023-06-22T13:43:34;21.60;99.90
28336;DHT22;15592;53.656;7.276;2023-06-22T13:46:00;21.60;99.90
28336;DHT22;15592;53.656;7.276;2023-06-22T13:48:25;21.60;99.90
28336;DHT22;15592;53.656;7.276;2023-06-22T13:50:52;21.60;99.90
28336;DHT22;15592;53.656;7.276;2023-06-22T13:53:17;21.50;99.90
28336;DHT22;15592;53.656;7.276;2023-06-22T13:55:43;21.40;99.90
28336;DHT22;15592;53.656;7.276;2023-06-22T13:58:08;21.30;99.90
28336;DHT22;15592;53.656;7.276;2023-06-22T14:00:34;21.30;99.90
28336;DHT22;15592;53.656;7.276;2023-06-22T14:03:00;21.30;99.90
28336;DHT22;15592;53.656;7.276;2023-06-22T14:05:25;21.30;99.90
28336;DHT22;15592;53.656;7.276;2023-06-22T14:07:51;21.30;99.90
28336;DHT22;15592;53.656;7.276;2023-06-22T14:10:17;21.20;99.90
28336;DHT22;15592;53.656;7.276;2023-06-22T14:12:43;21.10;99.90
28336;DHT22;15592;53.656;7.276;2023-06-22T14:15:08;21.10;99.90
28336;DHT22;15592;53.656;7.276;2023-06-22T14:17:34;21.00;99.90
28336;DHT22;15592;53.656;7.276;2023-06-22T14:20:05;21.00;99.90
28336;DHT22;15592;53.656;7.276;2023-06-22T14:22:33;21.00;99.90
28336;DHT22;15592;53.656;7.276;2023-06-22T14:25:00;20.90;99.90
28336;DHT22;15592;53.656;7.276;2023-06-22T14:27:26;20.90;99.90
28336;DHT22;15592;53.656;7.276;2023-06-22T14:29:52;20.80;99.90
28336;DHT22;15592;53.656;7.276;2023-06-22T14:32:18;20.80;99.90
28336;DHT22;15592;53.656;7.276;2023-06-22T14:34:44;20.80;99.90
28336;DHT22;15592;53.656;7.276;2023-06-22T14:37:10;20.80;99.90
28336;DHT22;15592;53.656;7.276;2023-06-22T14:39:36;20.70;99.90
28336;DHT22;15592;53.656;7.276;2023-06-22T14:42:02;20.70;99.90
28336;DHT22;15592;53.656;7.276;2023-06-22T14:44:29;20.70;99.90
28336;DHT22;15592;53.656;7.276;2023-06-22T14:46:56;20.50;99.90
28336;DHT22;15592;53.656;7.276;2023-06-22T14:49:21;20.40;99.90
28336;DHT22;15592;53.656;7.276;2023-06-22T14:51:47;20.40;99.90
28336;DHT22;15592;53.656;7.276;2023-06-22T14:54:14;20.30;99.90
28336;DHT22;15592;53.656;7.276;2023-06-22T14:56:39;20.20;99.90
28336;DHT22;15592;53.656;7.276;2023-06-22T14:59:05;20.10;99.90
28336;DHT22;15592;53.656;7.276;2023-06-22T15:01:31;20.10;99.90
28336;DHT22;15592;53.656;7.276;2023-06-22T15:03:57;20.20;99.90
28336;DHT22;15592;53.656;7.276;2023-06-22T15:06:22;20.10;99.90
28336;DHT22;15592;53.656;7.276;2023-06-22T15:08:48;20.10;99.90
28336;DHT22;15592;53.656;7.276;2023-06-22T15:11:14;20.10;99.90
28336;DHT22;15592;53.656;7.276;2023-06-22T15:13:40;20.10;99.90
28336;DHT22;15592;53.656;7.276;2023-06-22T15:16:06;20.10;99.90
28336;DHT22;15592;53.656;7.276;2023-06-22T15:18:32;20.10;99.90
28336;DHT22;15592;53.656;7.276;2023-06-22T15:21:01;20.10;99.90
28336;DHT22;15592;53.656;7.276;2023-06-22T15:23:28;20.00;99.90
28336;DHT22;15592;53.656;7.276;2023-06-22T15:25:55;19.90;99.90
28336;DHT22;15592;53.656;7.276;2023-06-22T15:28:20;19.90;99.90
28336;DHT22;15592;53.656;7.276;2023-06-22T15:30:49;19.90;99.90
28336;DHT22;15592;53.656;7.276;2023-06-22T15:33:15;19.90;99.90